Time;durP1;ratioP1;P1;durP2;ratioP2;P2;SDS_P1;SDS_P2;PMS_P1;PMS_P2;Temp;Humidity;BMP_temperature;BMP_pressure;BME280_temperature;BME280_humidity;BME280_pressure;Samples;Min_cycle;Max_cycle;Signal;HPM_P1;HPM_P2
2023/03/30 00:01:23;;;;;;;;;;;;;;;18.87;36.81;95507.75;10483203;28;2020;-63
2023/03/30 00:06:25;;;;;;;;;;;;;;;18.88;36.80;95516.41;10484342;28;1964;-63
2023/03/30 00:11:25;;;;;;;;;;;;;;;18.86;36.87;95514.03;10480976;28;2083;-63
2023/03/30 00:16:26;;;;;;;;;;;;;;;18.83;36.85;95498.84;10463265;28;1931;-63
2023/03/30 00:21:27;;;;;;;;;;;;;;;18.83;36.79;95493.59;10483085;28;2007;-63
2023/03/30 00:26:31;;;;;;;;;;;;;;;18.82;36.74;95480.69;10459672;28;2046;-63
2023/03/30 00:31:32;;;;;;;;;;;;;;;18.80;36.78;95480.19;10480481;28;2118;-63
2023/03/30 00:36:35;;;;;;;;;;;;;;;18.79;36.84;95473.38;10445362;28;2032;-63
2023/03/30 00:41:36;;;;;;;;;;;;;;;18.79;36.72;95463.66;10434239;28;1928;-63
2023/03/30 00:46:36;;;;;;;;;;;;;;;18.77;36.78;95452.66;10461572;28;1980;-63
2023/03/30 00:51:37;;;;;;;;;;;;;;;18.75;36.80;95446.88;10480961;28;2008;-63
2023/03/30 00:56:37;;;;;;;;;;;;;;;18.74;36.77;95447.91;10467773;28;1983;-63
2023/03/30 01:01:39;;;;;;;;;;;;;;;18.73;36.80;95437.69;10481784;28;1957;-62
2023/03/30 01:06:39;;;;;;;;;;;;;;;18.72;36.70;95439.53;10471760;28;1976;-63
2023/03/30 01:11:39;;;;;;;;;;;;;;;18.71;36.75;95434.56;10468946;28;1984;-64
2023/03/30 01:16:47;;;;;;;;;;;;;;;18.70;36.66;95433.75;10468128;28;1934;-63
2023/03/30 01:21:47;;;;;;;;;;;;;;;18.70;36.97;95431.13;10470548;28;1968;-64
2023/03/30 01:27:18;;;;;;;;;;;;;;;18.68;36.68;95425.38;10484597;28;1976;-63
2023/03/30 01:32:36;;;;;;;;;;;;;;;18.65;36.81;95418.81;10464027;28;2519;-64
2023/03/30 01:37:55;;;;;;;;;;;;;;;18.65;36.72;95418.81;10463126;28;1932;-64
2023/03/30 01:42:56;;;;;;;;;;;;;;;18.64;36.78;95416.47;10481243;28;1976;-66
2023/03/30 01:47:59;;;;;;;;;;;;;;;18.63;36.62;95420.91;10462754;28;2011;-63
2023/03/30 01:53:10;;;;;;;;;;;;;;;18.62;36.78;95429.06;10487176;28;1964;-63
2023/03/30 01:58:50;;;;;;;;;;;;;;;18.63;36.83;95438.50;10465434;28;1870;-63
2023/03/30 02:03:53;;;;;;;;;;;;;;;18.61;36.74;95433.53;10247314;28;1929;-63
2023/03/30 02:08:54;;;;;;;;;;;;;;;18.59;36.67;95433.00;10414868;28;1933;-63
2023/03/30 02:13:57;;;;;;;;;;;;;;;18.59;36.79;95424.34;10459263;28;2019;-64
2023/03/30 02:19:05;;;;;;;;;;;;;;;18.55;36.66;95418.06;10476844;28;1952;-64
2023/03/30 02:24:06;;;;;;;;;;;;;;;18.57;36.75;95423.81;10452384;28;2188;-66
2023/03/30 02:29:07;;;;;;;;;;;;;;;18.56;36.96;95419.66;10444172;28;2017;-65
2023/03/30 02:34:09;;;;;;;;;;;;;;;18.55;36.84;95441.69;10461407;28;2041;-63
2023/03/30 02:39:09;;;;;;;;;;;;;;;18.54;36.76;95459.28;10459077;28;1957;-65
2023/03/30 02:44:16;;;;;;;;;;;;;;;18.54;36.73;95484.75;10475041;28;2238;-65
2023/03/30 02:49:21;;;;;;;;;;;;;;;18.52;36.84;95474.53;10478374;28;2008;-65
2023/03/30 02:54:39;;;;;;;;;;;;;;;18.52;36.78;95498.16;10457889;28;1966;-64
2023/03/30 02:59:43;;;;;;;;;;;;;;;18.52;36.88;95503.41;10456290;28;1968;-64
2023/03/30 03:04:45;;;;;;;;;;;;;;;18.50;36.79;95494.22;10460508;28;2025;-64
2023/03/30 03:09:45;;;;;;;;;;;;;;;18.48;36.82;95501.56;10458301;28;1975;-64
2023/03/30 03:14:45;;;;;;;;;;;;;;;18.48;36.64;95501.56;10488543;28;1968;-63
2023/03/30 03:19:46;;;;;;;;;;;;;;;18.48;36.82;95497.09;10484240;28;1964;-65
2023/03/30 03:24:46;;;;;;;;;;;;;;;18.47;36.87;95481.59;10466174;28;2006;-63
2023/03/30 03:29:48;;;;;;;;;;;;;;;18.47;36.78;95481.59;10486292;28;1969;-65
2023/03/30 03:34:48;;;;;;;;;;;;;;;18.45;36.82;95473.22;10470566;28;1967;-65
2023/03/30 03:39:49;;;;;;;;;;;;;;;18.45;36.91;95470.59;10467277;28;2035;-65
2023/03/30 03:44:50;;;;;;;;;;;;;;;18.44;36.85;95495.28;10486350;28;1957;-66
2023/03/30 03:49:50;;;;;;;;;;;;;;;18.44;36.85;95508.41;10468063;28;1925;-65
2023/03/30 03:54:50;;;;;;;;;;;;;;;18.42;36.92;95513.84;10485397;28;2064;-66
2023/03/30 03:59:52;;;;;;;;;;;;;;;18.40;36.91;95515.97;10486595;28;2031;-65
2023/03/30 04:04:52;;;;;;;;;;;;;;;18.41;36.84;95533.28;10484588;28;2051;-65
2023/03/30 04:09:54;;;;;;;;;;;;;;;18.43;36.85;95538.28;10470599;28;2073;-65
2023/03/30 04:14:55;;;;;;;;;;;;;;;18.47;36.93;95526.22;10466818;28;1991;-65
2023/03/30 04:19:56;;;;;;;;;;;;;;;18.55;36.91;95528.31;10482620;28;1985;-65
2023/03/30 04:24:58;;;;;;;;;;;;;;;18.64;36.92;95531.97;10484541;28;2118;-66
2023/03/30 04:29:58;;;;;;;;;;;;;;;18.74;36.66;95547.69;10477847;28;1941;-66
2023/03/30 04:34:58;;;;;;;;;;;;;;;18.84;36.54;95555.53;10466531;28;2024;-65
2023/03/30 04:39:59;;;;;;;;;;;;;;;18.93;36.61;95561.84;10465843;28;1963;-65
2023/03/30 04:44:59;;;;;;;;;;;;;;;18.99;36.49;95566.03;10469809;28;1956;-65
2023/03/30 04:50:01;;;;;;;;;;;;;;;19.03;36.42;95567.06;10481620;28;2127;-65
2023/03/30 04:55:02;;;;;;;;;;;;;;;19.07;36.34;95565.47;10482677;28;1906;-65
2023/03/30 05:00:05;;;;;;;;;;;;;;;19.12;36.38;95564.66;10484383;28;1984;-66
2023/03/30 05:05:06;;;;;;;;;;;;;;;19.13;36.31;95548.63;10481039;28;1952;-66
2023/03/30 05:10:16;;;;;;;;;;;;;;;19.16;36.45;95528.91;10483190;28;1964;-62
2023/03/30 05:15:18;;;;;;;;;;;;;;;19.19;36.45;95531.78;10485728;28;1937;-63
2023/03/30 05:20:28;;;;;;;;;;;;;;;19.23;36.29;95526.75;10480597;28;1965;-63
2023/03/30 05:25:28;;;;;;;;;;;;;;;19.26;36.49;95524.41;10476408;28;2065;-63
2023/03/30 05:30:29;;;;;;;;;;;;;;;19.29;36.30;95521.22;10477886;28;2008;-63
2023/03/30 05:35:29;;;;;;;;;;;;;;;19.32;36.38;95507.56;10479839;28;1980;-63
2023/03/30 05:40:30;;;;;;;;;;;;;;;19.35;36.27;95506.25;10482218;28;2010;-63
2023/03/30 05:45:31;;;;;;;;;;;;;;;19.39;36.47;95494.91;10483425;28;2174;-63
2023/03/30 05:50:32;;;;;;;;;;;;;;;19.43;36.43;95480.16;10482440;28;1986;-62
2023/03/30 05:55:33;;;;;;;;;;;;;;;19.48;36.21;95464.38;10475449;28;1969;-63
2023/03/30 06:00:35;;;;;;;;;;;;;;;19.51;36.25;95449.13;10480171;28;1952;-64
2023/03/30 06:05:40;;;;;;;;;;;;;;;19.54;36.26;95440.69;10482048;28;1981;-63
2023/03/30 06:10:41;;;;;;;;;;;;;;;19.58;36.32;95439.09;10464836;28;2154;-63
2023/03/30 06:15:43;;;;;;;;;;;;;;;19.62;36.26;95427.72;10483008;28;2012;-63
2023/03/30 06:20:46;;;;;;;;;;;;;;;19.64;36.44;95415.09;10482264;28;1975;-63
2023/03/30 06:25:51;;;;;;;;;;;;;;;19.69;36.44;95416.91;10481174;28;2101;-63
2023/03/30 06:30:52;;;;;;;;;;;;;;;19.67;36.49;95400.59;10477966;28;2151;-63
2023/03/30 06:35:53;;;;;;;;;;;;;;;19.70;36.47;95389.56;10477940;28;2079;-63
2023/03/30 06:40:53;;;;;;;;;;;;;;;19.71;36.61;95377.97;10466830;28;1956;-63
2023/03/30 06:45:54;;;;;;;;;;;;;;;19.74;36.34;95366.91;10480540;28;2280;-63
2023/03/30 06:50:55;;;;;;;;;;;;;;;19.75;36.21;95363.19;10483985;28;1947;-63
2023/03/30 06:55:55;;;;;;;;;;;;;;;19.75;36.44;95358.72;10475573;28;1995;-63
2023/03/30 07:00:56;;;;;;;;;;;;;;;19.77;36.48;95335.56;10478072;28;1984;-63
2023/03/30 07:05:57;;;;;;;;;;;;;;;19.77;36.51;95329.50;10457486;28;1974;-64
2023/03/30 07:10:58;;;;;;;;;;;;;;;19.79;36.36;95343.97;10480038;28;1979;-63
2023/03/30 07:15:59;;;;;;;;;;;;;;;19.79;36.46;95324.75;10474299;28;1969;-62
2023/03/30 07:20:59;;;;;;;;;;;;;;;19.78;36.68;95316.09;10474941;28;1959;-63
2023/03/30 07:25:59;;;;;;;;;;;;;;;19.77;36.43;95303.22;10473209;28;1988;-63
2023/03/30 07:31:07;;;;;;;;;;;;;;;19.77;36.55;95321.63;10474755;28;1989;-63
2023/03/30 07:36:07;;;;;;;;;;;;;;;19.75;36.57;95306.13;10460032;28;1984;-63
2023/03/30 07:41:11;;;;;;;;;;;;;;;19.73;36.87;95312.72;10457692;28;1996;-62
2023/03/30 07:46:12;;;;;;;;;;;;;;;19.72;36.98;95322.44;10474870;28;1957;-63
2023/03/30 07:51:13;;;;;;;;;;;;;;;19.69;37.05;95328.28;10477976;28;2107;-63
2023/03/30 07:56:14;;;;;;;;;;;;;;;19.67;37.22;95314.63;10477926;28;2016;-63
2023/03/30 08:01:15;;;;;;;;;;;;;;;19.65;37.14;95300.19;10479590;28;2014;-63
2023/03/30 08:06:16;;;;;;;;;;;;;;;19.61;37.13;95286.81;10486957;28;1924;-63
2023/03/30 08:11:17;;;;;;;;;;;;;;;19.60;37.10;95287.88;10487474;28;2100;-63
2023/03/30 08:16:18;;;;;;;;;;;;;;;19.58;37.29;95253.19;10480043;28;2074;-63
2023/03/30 08:21:18;;;;;;;;;;;;;;;19.58;37.46;95262.94;10468760;28;2037;-63
2023/03/30 08:26:19;;;;;;;;;;;;;;;19.56;37.65;95259.81;10477597;28;1949;-63
2023/03/30 08:31:20;;;;;;;;;;;;;;;19.54;37.55;95252.19;10484815;28;2021;-63
2023/03/30 08:36:21;;;;;;;;;;;;;;;19.53;37.51;95247.19;10483902;28;1977;-63
2023/03/30 08:41:28;;;;;;;;;;;;;;;19.51;37.59;95252.75;10480564;28;1969;-63
2023/03/30 08:46:28;;;;;;;;;;;;;;;19.47;37.58;95249.88;10483090;28;2087;-63
2023/03/30 08:51:32;;;;;;;;;;;;;;;19.45;37.54;95254.63;10478134;28;1992;-63
2023/03/30 08:56:39;;;;;;;;;;;;;;;19.44;37.74;95257.53;10476273;28;1983;-64
2023/03/30 09:01:50;;;;;;;;;;;;;;;19.41;37.49;95237.84;10464081;28;1956;-63
2023/03/30 09:06:55;;;;;;;;;;;;;;;19.41;37.54;95231.81;10482688;28;1980;-64
2023/03/30 09:12:07;;;;;;;;;;;;;;;19.37;37.51;95247.34;10494722;28;1972;-63
2023/03/30 09:17:25;;;;;;;;;;;;;;;19.35;37.71;95253.97;10462322;28;2166;-63
2023/03/30 09:22:28;;;;;;;;;;;;;;;19.34;37.76;95250.53;10457388;28;2064;-63
2023/03/30 09:27:33;;;;;;;;;;;;;;;19.34;37.87;95263.69;10458728;28;1961;-63
2023/03/30 09:32:39;;;;;;;;;;;;;;;19.34;38.23;95268.16;10465351;28;1960;-63
2023/03/30 09:37:39;;;;;;;;;;;;;;;19.34;38.49;95262.88;10479545;28;1977;-65
2023/03/30 09:42:56;;;;;;;;;;;;;;;19.36;39.38;95266.81;10479049;28;1909;-62
2023/03/30 09:48:06;;;;;;;;;;;;;;;19.37;39.34;95252.59;10461369;28;1995;-65
2023/03/30 09:53:16;;;;;;;;;;;;;;;19.35;39.03;95259.97;10481409;28;2067;-65
2023/03/30 09:58:27;;;;;;;;;;;;;;;19.34;38.85;95271.56;10462514;28;2037;-65
2023/03/30 10:03:28;;;;;;;;;;;;;;;19.34;38.89;95273.41;10481504;28;2387;-65
2023/03/30 10:08:42;;;;;;;;;;;;;;;19.35;39.06;95269.72;10488022;28;2053;-65
2023/03/30 10:13:43;;;;;;;;;;;;;;;19.35;39.00;95264.47;10461050;28;1968;-65
2023/03/30 10:18:43;;;;;;;;;;;;;;;19.37;39.35;95255.22;10466858;28;2127;-65
2023/03/30 10:23:45;;;;;;;;;;;;;;;19.36;39.42;95264.19;10464956;28;1960;-64
2023/03/30 10:28:56;;;;;;;;;;;;;;;19.35;39.50;95262.59;10481996;28;1942;-64
2023/03/30 10:33:56;;;;;;;;;;;;;;;19.35;39.37;95269.72;10493217;28;2057;-64
2023/03/30 10:39:02;;;;;;;;;;;;;;;19.35;39.35;95288.13;10488513;28;2035;-62
2023/03/30 10:44:22;;;;;;;;;;;;;;;19.32;39.30;95296.53;10478763;28;1968;-65
2023/03/30 10:49:36;;;;;;;;;;;;;;;19.31;39.36;95305.44;10476807;28;1984;-64
2023/03/30 10:54:37;;;;;;;;;;;;;;;19.31;39.33;95336.97;10474162;28;1953;-64
2023/03/30 11:00:17;;;;;;;;;;;;;;;19.30;39.42;95345.94;10477035;28;2099;-65
2023/03/30 11:05:21;;;;;;;;;;;;;;;19.28;39.41;95354.09;10314713;28;2020;-62
2023/03/30 11:10:30;;;;;;;;;;;;;;;19.28;39.46;95375.13;10439142;28;1996;-64
2023/03/30 11:15:54;;;;;;;;;;;;;;;19.29;39.43;95370.63;10475788;28;1969;-64
2023/03/30 11:20:57;;;;;;;;;;;;;;;19.26;39.63;95392.22;10457017;28;1997;-62
2023/03/30 11:26:00;;;;;;;;;;;;;;;19.26;39.46;95402.72;10457772;28;2031;-63
2023/03/30 11:31:22;;;;;;;;;;;;;;;19.25;39.42;95409.03;10459107;28;1972;-64
2023/03/30 11:36:26;;;;;;;;;;;;;;;19.22;39.34;95418.28;10484153;28;2262;-63
2023/03/30 11:41:34;;;;;;;;;;;;;;;19.21;39.30;95429.03;10465807;28;2035;-63
2023/03/30 11:46:34;;;;;;;;;;;;;;;19.20;39.35;95435.34;10487052;28;2103;-64
2023/03/30 11:51:51;;;;;;;;;;;;;;;19.18;39.24;95438.25;10487001;28;1968;-63
2023/03/30 11:56:56;;;;;;;;;;;;;;;19.17;39.22;95462.94;10451039;28;2023;-63
2023/03/30 12:02:00;;;;;;;;;;;;;;;19.16;39.36;95482.41;10474978;28;2049;-63
2023/03/30 12:07:00;;;;;;;;;;;;;;;19.15;39.26;95485.28;10481853;28;2016;-63
2023/03/30 12:12:03;;;;;;;;;;;;;;;19.13;39.15;95488.19;10475900;28;2039;-63
2023/03/30 12:17:11;;;;;;;;;;;;;;;19.12;39.26;95480.59;10489496;28;2019;-62
2023/03/30 12:22:20;;;;;;;;;;;;;;;19.12;39.17;95470.09;10475217;28;2041;-64
2023/03/30 12:27:22;;;;;;;;;;;;;;;19.12;39.28;95457.75;10466521;28;1975;-65
2023/03/30 12:32:26;;;;;;;;;;;;;;;19.14;39.37;95455.63;10478227;28;1999;-65
2023/03/30 12:37:27;;;;;;;;;;;;;;;19.18;39.28;95422.50;10484637;28;1917;-64
2023/03/30 12:42:34;;;;;;;;;;;;;;;19.23;39.10;95414.56;10477119;28;2072;-64
2023/03/30 12:47:42;;;;;;;;;;;;;;;19.33;38.96;95419.00;10468453;28;2323;-64
2023/03/30 12:52:45;;;;;;;;;;;;;;;19.41;39.07;95416.56;10481788;28;1960;-63
2023/03/30 12:57:53;;;;;;;;;;;;;;;19.49;38.89;95412.59;10476441;28;2025;-63
2023/03/30 13:02:54;;;;;;;;;;;;;;;19.58;38.95;95404.91;10480856;28;1960;-63
2023/03/30 13:07:55;;;;;;;;;;;;;;;19.62;38.93;95404.06;10482348;28;1976;-62
2023/03/30 13:12:55;;;;;;;;;;;;;;;19.70;38.98;95410.59;10469137;28;2023;-64
2023/03/30 13:18:00;;;;;;;;;;;;;;;19.74;38.84;95395.84;10476065;28;1971;-63
2023/03/30 13:23:10;;;;;;;;;;;;;;;19.80;38.83;95387.63;10480016;28;2072;-63
2023/03/30 13:28:29;;;;;;;;;;;;;;;19.84;38.87;95385.22;10480063;28;1964;-64
2023/03/30 13:33:29;;;;;;;;;;;;;;;19.88;38.88;95380.97;10479448;28;2024;-64
2023/03/30 13:38:30;;;;;;;;;;;;;;;19.91;38.63;95368.03;10480950;28;2025;-64
2023/03/30 13:43:41;;;;;;;;;;;;;;;19.94;38.56;95377.22;10481641;28;1967;-64
2023/03/30 13:48:42;;;;;;;;;;;;;;;19.96;38.44;95370.63;10490322;28;1978;-64
2023/03/30 13:53:43;;;;;;;;;;;;;;;19.99;38.49;95364.78;10487786;28;1901;-64
2023/03/30 13:58:46;;;;;;;;;;;;;;;20.02;38.44;95368.72;10484517;28;1886;-65
2023/03/30 14:03:48;;;;;;;;;;;;;;;20.04;38.47;95383.19;10496612;28;1908;-65
2023/03/30 14:08:49;;;;;;;;;;;;;;;20.03;38.45;95380.84;10478765;28;1944;-65
2023/03/30 14:13:51;;;;;;;;;;;;;;;20.04;38.54;95377.13;10461414;28;1977;-65
2023/03/30 14:18:51;;;;;;;;;;;;;;;20.05;38.43;95379.47;10461724;28;2030;-64
2023/03/30 14:23:52;;;;;;;;;;;;;;;20.12;38.47;95373.88;10445821;28;2040;-66
2023/03/30 14:28:53;;;;;;;;;;;;;;;20.10;38.49;95368.91;10469407;28;1959;-67
2023/03/30 14:33:53;;;;;;;;;;;;;;;20.12;38.46;95366.00;10478191;28;1973;-66
2023/03/30 14:38:53;;;;;;;;;;;;;;;20.11;38.35;95338.13;10474775;28;2041;-64
2023/03/30 14:44:01;;;;;;;;;;;;;;;20.09;38.46;95311.31;10479310;28;1972;-65
2023/03/30 14:49:02;;;;;;;;;;;;;;;20.10;38.35;95320.75;10458125;28;2028;-66
2023/03/30 14:54:04;;;;;;;;;;;;;;;20.10;38.43;95328.66;10462460;28;2088;-66
2023/03/30 14:59:05;;;;;;;;;;;;;;;20.09;38.53;95306.03;10462326;28;2083;-67
2023/03/30 15:04:15;;;;;;;;;;;;;;;20.14;38.43;95303.34;10465907;28;1967;-62
2023/03/30 15:09:19;;;;;;;;;;;;;;;20.15;38.69;95283.88;10463245;28;1953;-55
2023/03/30 15:14:21;;;;;;;;;;;;;;;20.14;38.53;95312.03;10475953;28;2086;-65
2023/03/30 15:19:28;;;;;;;;;;;;;;;20.17;38.43;95319.34;10473682;28;2006;-64
2023/03/30 15:24:33;;;;;;;;;;;;;;;20.20;38.50;95318.03;10454164;28;2045;-65
2023/03/30 15:29:35;;;;;;;;;;;;;;;20.20;38.35;95316.19;10487702;28;1976;-65
2023/03/30 15:34:35;;;;;;;;;;;;;;;20.23;38.34;95301.69;10469453;28;2039;-64
2023/03/30 15:39:36;;;;;;;;;;;;;;;20.25;38.19;95300.34;10498587;28;1987;-65
2023/03/30 15:44:37;;;;;;;;;;;;;;;20.22;38.40;95295.63;10461674;28;2079;-66
2023/03/30 15:49:40;;;;;;;;;;;;;;;20.20;38.26;95286.44;10481090;28;1968;-66
2023/03/30 15:54:50;;;;;;;;;;;;;;;20.17;38.31;95289.63;10466485;28;1999;-65
2023/03/30 15:59:52;;;;;;;;;;;;;;;20.16;38.33;95285.41;10466688;28;1963;-65
2023/03/30 16:04:53;;;;;;;;;;;;;;;20.15;38.31;95294.38;10428355;28;1987;-65
2023/03/30 16:09:54;;;;;;;;;;;;;;;20.15;38.40;95289.88;10481087;28;2039;-65
2023/03/30 16:15:03;;;;;;;;;;;;;;;20.14;38.31;95287.56;10480921;28;1984;-65
2023/03/30 16:20:15;;;;;;;;;;;;;;;20.15;38.41;95297.03;10468139;28;1996;-65
2023/03/30 16:25:18;;;;;;;;;;;;;;;20.15;38.54;95303.03;10465585;28;1974;-63
2023/03/30 16:30:20;;;;;;;;;;;;;;;20.18;38.51;95312.22;10485369;28;1964;-65
2023/03/30 16:35:21;;;;;;;;;;;;;;;20.18;38.76;95314.88;10480475;28;1920;-64
2023/03/30 16:40:22;;;;;;;;;;;;;;;20.19;38.51;95325.16;10482643;28;1953;-65
2023/03/30 16:45:24;;;;;;;;;;;;;;;20.21;38.43;95322.25;10484565;28;2083;-65
2023/03/30 16:50:37;;;;;;;;;;;;;;;20.21;38.33;95314.34;10484449;28;1988;-65
2023/03/30 16:55:37;;;;;;;;;;;;;;;20.21;38.45;95299.34;10482940;28;2176;-65
2023/03/30 17:00:42;;;;;;;;;;;;;;;20.23;38.43;95301.69;10465335;28;1944;-65
2023/03/30 17:05:50;;;;;;;;;;;;;;;20.22;38.48;95310.63;10488468;28;2000;-65
2023/03/30 17:10:50;;;;;;;;;;;;;;;20.22;38.41;95310.63;10487761;28;2099;-65
2023/03/30 17:15:51;;;;;;;;;;;;;;;20.21;38.43;95309.09;10470678;28;2090;-64
2023/03/30 17:20:52;;;;;;;;;;;;;;;20.23;38.41;95322.75;10490647;28;1991;-64
2023/03/30 17:25:53;;;;;;;;;;;;;;;20.24;38.52;95334.81;10483209;28;2033;-65
2023/03/30 17:30:54;;;;;;;;;;;;;;;20.25;38.63;95337.19;10483182;28;1957;-63
2023/03/30 17:35:55;;;;;;;;;;;;;;;20.26;38.57;95337.97;10466141;28;2079;-63
2023/03/30 17:40:56;;;;;;;;;;;;;;;20.28;38.72;95335.81;10485119;28;2048;-62
2023/03/30 17:45:56;;;;;;;;;;;;;;;20.26;38.97;95343.22;10464341;28;2073;-63
2023/03/30 17:50:58;;;;;;;;;;;;;;;20.24;38.76;95335.63;10483700;28;2073;-63
2023/03/30 17:55:58;;;;;;;;;;;;;;;20.25;38.71;95341.66;10473336;28;2032;-62
2023/03/30 18:00:59;;;;;;;;;;;;;;;20.25;38.63;95331.16;10483186;28;1974;-64
2023/03/30 18:06:00;;;;;;;;;;;;;;;20.26;38.80;95335.31;10479190;28;1986;-61
2023/03/30 18:11:01;;;;;;;;;;;;;;;20.26;38.64;95332.69;10466878;28;2057;-65
2023/03/30 18:16:03;;;;;;;;;;;;;;;20.27;38.98;95334.28;10476837;28;2043;-64
2023/03/30 18:21:03;;;;;;;;;;;;;;;20.30;38.65;95327.69;10476118;28;1944;-67
2023/03/30 18:26:05;;;;;;;;;;;;;;;20.31;38.62;95342.38;10475766;28;2039;-66
2023/03/30 18:31:07;;;;;;;;;;;;;;;20.31;38.67;95350.28;10476313;28;2044;-66
2023/03/30 18:36:11;;;;;;;;;;;;;;;20.33;38.72;95362.09;10479696;28;2009;-63
2023/03/30 18:41:11;;;;;;;;;;;;;;;20.39;39.63;95363.63;10474851;28;1996;-63
2023/03/30 18:46:13;;;;;;;;;;;;;;;20.45;40.49;95375.66;10479031;28;1956;-63
2023/03/30 18:51:13;;;;;;;;;;;;;;;20.48;40.82;95369.84;10481546;28;1463;-63
2023/03/30 18:56:14;;;;;;;;;;;;;;;20.51;40.67;95386.91;10484374;28;2066;-63
2023/03/30 19:01:15;;;;;;;;;;;;;;;20.52;41.16;95394.53;10483322;28;2188;-62
2023/03/30 19:06:16;;;;;;;;;;;;;;;20.54;41.05;95402.94;10486079;28;2037;-64
2023/03/30 19:11:18;;;;;;;;;;;;;;;20.56;41.11;95403.44;10467272;28;2076;-63
2023/03/30 19:16:21;;;;;;;;;;;;;;;20.57;40.97;95410.25;10464347;28;2046;-63
2023/03/30 19:21:21;;;;;;;;;;;;;;;20.57;41.27;95418.16;10467780;28;2114;-63
2023/03/30 19:26:22;;;;;;;;;;;;;;;20.57;40.93;95428.69;10477473;28;2083;-63
2023/03/30 19:31:23;;;;;;;;;;;;;;;20.57;40.94;95433.97;10486510;28;2068;-63
2023/03/30 19:36:24;;;;;;;;;;;;;;;20.57;40.78;95431.31;10486292;28;2073;-63
2023/03/30 19:41:30;;;;;;;;;;;;;;;20.57;40.72;95427.91;10484880;28;2008;-63
2023/03/30 19:46:32;;;;;;;;;;;;;;;20.56;40.63;95435.03;10485250;28;1998;-63
2023/03/30 19:51:32;;;;;;;;;;;;;;;20.55;40.71;95433.47;10482797;28;2070;-63
2023/03/30 19:56:33;;;;;;;;;;;;;;;20.55;40.33;95457.16;10488980;28;2108;-63
2023/03/30 20:01:34;;;;;;;;;;;;;;;20.55;40.07;95477.44;10491353;28;2005;-63
2023/03/30 20:06:34;;;;;;;;;;;;;;;20.54;40.20;95474.03;10494000;28;2052;-63
2023/03/30 20:11:35;;;;;;;;;;;;;;;20.52;40.27;95480.63;10471694;28;2107;-63
2023/03/30 20:16:35;;;;;;;;;;;;;;;20.51;40.32;95476.41;10473739;28;2217;-63
2023/03/30 20:21:35;;;;;;;;;;;;;;;20.51;39.96;95461.41;10489210;28;1510;-62
2023/03/30 20:26:36;;;;;;;;;;;;;;;20.50;39.88;95443.28;10493237;28;2112;-63
2023/03/30 20:31:36;;;;;;;;;;;;;;;20.49;40.15;95442.47;10490397;28;2022;-62
2023/03/30 20:36:36;;;;;;;;;;;;;;;20.50;39.58;95444.06;10489043;28;2046;-67
2023/03/30 20:41:37;;;;;;;;;;;;;;;20.48;39.85;95440.94;10462044;28;2029;-67
2023/03/30 20:46:38;;;;;;;;;;;;;;;20.47;39.96;95422.75;10482985;28;2067;-66
2023/03/30 20:51:38;;;;;;;;;;;;;;;20.46;39.98;95422.00;10463763;28;2070;-66
2023/03/30 20:56:38;;;;;;;;;;;;;;;20.45;40.06;95425.66;10480561;28;2038;-66
2023/03/30 21:01:39;;;;;;;;;;;;;;;20.43;39.93;95419.13;10479889;28;2199;-66
2023/03/30 21:06:40;;;;;;;;;;;;;;;20.41;39.86;95408.88;10478117;28;2075;-66
2023/03/30 21:11:41;;;;;;;;;;;;;;;20.41;39.93;95413.34;10480397;28;2047;-66
2023/03/30 21:16:41;;;;;;;;;;;;;;;20.39;40.05;95416.25;10482242;28;2285;-66
2023/03/30 21:21:42;;;;;;;;;;;;;;;20.38;40.08;95412.06;10458555;28;2045;-67
2023/03/30 21:26:42;;;;;;;;;;;;;;;20.36;40.02;95401.00;10467336;28;1900;-66
2023/03/30 21:31:42;;;;;;;;;;;;;;;20.35;40.03;95399.47;10447680;28;2023;-66
2023/03/30 21:36:43;;;;;;;;;;;;;;;20.33;39.95;95396.31;10457784;28;2114;-66
2023/03/30 21:41:44;;;;;;;;;;;;;;;20.33;39.82;95379.75;10480269;28;2045;-66
2023/03/30 21:46:44;;;;;;;;;;;;;;;20.32;40.11;95376.31;10476636;28;2005;-67
2023/03/30 21:51:45;;;;;;;;;;;;;;;20.30;39.81;95364.53;10474506;28;2004;-67
2023/03/30 21:56:46;;;;;;;;;;;;;;;20.30;39.79;95367.16;10456702;28;2070;-68
2023/03/30 22:01:46;;;;;;;;;;;;;;;20.28;39.83;95370.84;10478830;28;2083;-67
2023/03/30 22:06:47;;;;;;;;;;;;;;;20.27;39.94;95364.03;10461595;28;2012;-66
2023/03/30 22:11:47;;;;;;;;;;;;;;;20.26;39.66;95354.53;10475934;28;2067;-66
2023/03/30 22:16:48;;;;;;;;;;;;;;;20.25;39.62;95362.72;10492588;28;2223;-66
2023/03/30 22:21:48;;;;;;;;;;;;;;;20.24;39.56;95347.97;10480517;28;1960;-66
2023/03/30 22:26:48;;;;;;;;;;;;;;;20.22;39.58;95336.94;10480210;28;2104;-67
2023/03/30 22:31:54;;;;;;;;;;;;;;;20.21;39.64;95327.50;10474190;28;2210;-66
2023/03/30 22:36:54;;;;;;;;;;;;;;;20.20;39.50;95325.94;10475671;28;1990;-66
2023/03/30 22:41:55;;;;;;;;;;;;;;;20.20;39.63;95323.28;10453984;28;2020;-67
2023/03/30 22:46:57;;;;;;;;;;;;;;;20.19;39.36;95325.16;10432573;28;2091;-67
2023/03/30 22:52:01;;;;;;;;;;;;;;;20.17;39.41;95313.31;10479124;28;2118;-67
2023/03/30 22:57:01;;;;;;;;;;;;;;;20.17;39.37;95306.19;10476967;28;2068;-66
2023/03/30 23:02:01;;;;;;;;;;;;;;;20.16;39.43;95303.84;10460493;28;2044;-67
2023/03/30 23:07:12;;;;;;;;;;;;;;;20.15;39.15;95304.91;10479358;28;2127;-67
2023/03/30 23:12:14;;;;;;;;;;;;;;;20.14;39.07;95288.34;10479937;28;1982;-66
2023/03/30 23:17:14;;;;;;;;;;;;;;;20.13;39.15;95275.47;10471024;28;2410;-66
2023/03/30 23:22:15;;;;;;;;;;;;;;;20.12;39.14;95279.94;10472011;28;2115;-68
2023/03/30 23:27:16;;;;;;;;;;;;;;;20.10;39.18;95278.66;10479570;28;2109;-68
2023/03/30 23:32:23;;;;;;;;;;;;;;;20.10;39.22;95276.03;10484452;28;2027;-68
2023/03/30 23:37:23;;;;;;;;;;;;;;;20.08;39.04;95263.16;10483151;28;2455;-67
2023/03/30 23:42:24;;;;;;;;;;;;;;;20.08;39.28;95257.09;10502135;28;2139;-68
2023/03/30 23:47:26;;;;;;;;;;;;;;;20.08;39.15;95251.84;10488158;28;1949;-68
2023/03/30 23:52:26;;;;;;;;;;;;;;;20.06;38.97;95249.50;10482430;28;2201;-68
2023/03/30 23:57:27;;;;;;;;;;;;;;;20.05;38.81;95237.38;10484417;28;2058;-68
